sensor_id;sensor_type;location;lat;lon;timestamp;noise_LAeq;noise_LA_min;noise_LA_max;noise_LA01;noise_LA95
17594;Laerm;8916;47.086;15.920;2023-04-03T00:01:41;49.29;48.23;50.43;;
17594;Laerm;8916;47.086;15.920;2023-04-03T00:04:11;49.28;48.23;50.43;;
17594;Laerm;8916;47.086;15.920;2023-04-03T00:06:41;49.28;48.23;50.46;;
17594;Laerm;8916;47.086;15.920;2023-04-03T00:09:10;49.27;48.16;50.56;;
17594;Laerm;8916;47.086;15.920;2023-04-03T00:11:39;49.28;48.25;50.38;;
17594;Laerm;8916;47.086;15.920;2023-04-03T00:14:08;49.28;48.23;50.34;;
17594;Laerm;8916;47.086;15.920;2023-04-03T00:16:37;49.28;48.08;50.56;;
17594;Laerm;8916;47.086;15.920;2023-04-03T00:19:07;49.28;48.08;50.57;;
17594;Laerm;8916;47.086;15.920;2023-04-03T00:21:40;49.28;48.10;50.37;;
17594;Laerm;8916;47.086;15.920;2023-04-03T00:24:10;49.28;48.16;50.29;;
17594;Laerm;8916;47.086;15.920;2023-04-03T00:26:39;49.27;48.12;50.41;;
17594;Laerm;8916;47.086;15.920;2023-04-03T00:29:08;49.27;48.05;50.49;;
17594;Laerm;8916;47.086;15.920;2023-04-03T00:31:37;49.27;48.19;50.30;;
17594;Laerm;8916;47.086;15.920;2023-04-03T00:34:06;49.27;48.16;50.41;;
17594;Laerm;8916;47.086;15.920;2023-04-03T00:36:35;49.27;48.08;50.41;;
17594;Laerm;8916;47.086;15.920;2023-04-03T00:39:06;49.27;48.23;50.36;;
17594;Laerm;8916;47.086;15.920;2023-04-03T00:41:35;49.27;48.13;50.51;;
17594;Laerm;8916;47.086;15.920;2023-04-03T00:44:21;49.28;48.15;50.30;;
17594;Laerm;8916;47.086;15.920;2023-04-03T00:46:50;49.29;48.29;50.44;;
17594;Laerm;8916;47.086;15.920;2023-04-03T00:49:19;49.30;48.05;50.69;;
17594;Laerm;8916;47.086;15.920;2023-04-03T00:51:49;49.28;48.16;50.40;;
17594;Laerm;8916;47.086;15.920;2023-04-03T00:54:20;49.28;48.25;50.51;;
17594;Laerm;8916;47.086;15.920;2023-04-03T00:56:51;49.29;48.18;50.38;;
17594;Laerm;8916;47.086;15.920;2023-04-03T00:59:25;49.29;48.15;50.54;;
17594;Laerm;8916;47.086;15.920;2023-04-03T01:01:56;49.28;48.23;50.51;;
17594;Laerm;8916;47.086;15.920;2023-04-03T01:04:28;49.29;48.20;50.28;;
17594;Laerm;8916;47.086;15.920;2023-04-03T01:07:02;49.29;48.25;50.72;;
17594;Laerm;8916;47.086;15.920;2023-04-03T01:09:33;49.29;48.00;50.27;;
17594;Laerm;8916;47.086;15.920;2023-04-03T01:12:16;49.29;48.21;50.45;;
17594;Laerm;8916;47.086;15.920;2023-04-03T01:14:50;49.29;48.07;50.42;;
17594;Laerm;8916;47.086;15.920;2023-04-03T01:17:33;49.29;48.16;50.43;;
17594;Laerm;8916;47.086;15.920;2023-04-03T01:20:57;49.28;47.98;50.35;;
17594;Laerm;8916;47.086;15.920;2023-04-03T01:23:39;49.29;48.00;50.45;;
17594;Laerm;8916;47.086;15.920;2023-04-03T01:26:14;49.29;47.98;50.51;;
17594;Laerm;8916;47.086;15.920;2023-04-03T01:28:44;49.28;48.21;50.31;;
17594;Laerm;8916;47.086;15.920;2023-04-03T01:31:20;49.28;48.13;50.43;;
17594;Laerm;8916;47.086;15.920;2023-04-03T01:33:52;49.28;48.16;50.40;;
17594;Laerm;8916;47.086;15.920;2023-04-03T01:36:25;49.27;48.10;50.46;;
17594;Laerm;8916;47.086;15.920;2023-04-03T01:38:57;49.27;48.12;50.39;;
17594;Laerm;8916;47.086;15.920;2023-04-03T01:41:28;49.28;48.29;50.56;;
17594;Laerm;8916;47.086;15.920;2023-04-03T01:44:07;49.27;48.15;50.54;;
17594;Laerm;8916;47.086;15.920;2023-04-03T01:46:36;49.27;47.95;50.57;;
17594;Laerm;8916;47.086;15.920;2023-04-03T01:49:07;49.27;48.00;50.27;;
17594;Laerm;8916;47.086;15.920;2023-04-03T01:51:37;49.27;48.21;50.50;;
17594;Laerm;8916;47.086;15.920;2023-04-03T01:54:07;49.26;48.08;50.60;;
17594;Laerm;8916;47.086;15.920;2023-04-03T01:56:36;49.27;48.23;50.44;;
17594;Laerm;8916;47.086;15.920;2023-04-03T01:59:08;49.27;48.23;50.38;;
17594;Laerm;8916;47.086;15.920;2023-04-03T02:01:37;49.26;48.18;50.30;;
17594;Laerm;8916;47.086;15.920;2023-04-03T02:04:07;49.27;48.20;50.48;;
17594;Laerm;8916;47.086;15.920;2023-04-03T02:06:37;49.26;48.15;50.41;;
17594;Laerm;8916;47.086;15.920;2023-04-03T02:09:06;49.27;48.23;50.33;;
17594;Laerm;8916;47.086;15.920;2023-04-03T02:11:35;49.27;48.29;50.36;;
17594;Laerm;8916;47.086;15.920;2023-04-03T02:14:05;49.27;48.25;50.41;;
17594;Laerm;8916;47.086;15.920;2023-04-03T02:16:34;49.26;48.28;50.44;;
17594;Laerm;8916;47.086;15.920;2023-04-03T02:19:03;49.25;48.25;50.29;;
17594;Laerm;8916;47.086;15.920;2023-04-03T02:21:34;49.26;48.26;50.29;;
17594;Laerm;8916;47.086;15.920;2023-04-03T02:24:03;49.26;48.18;50.53;;
17594;Laerm;8916;47.086;15.920;2023-04-03T02:26:33;49.26;48.10;50.31;;
17594;Laerm;8916;47.086;15.920;2023-04-03T02:29:02;49.25;48.29;50.47;;
17594;Laerm;8916;47.086;15.920;2023-04-03T02:31:32;49.26;48.10;50.29;;
17594;Laerm;8916;47.086;15.920;2023-04-03T02:34:02;49.26;48.00;50.56;;
17594;Laerm;8916;47.086;15.920;2023-04-03T02:36:31;49.26;48.03;50.22;;
17594;Laerm;8916;47.086;15.920;2023-04-03T02:39:05;49.25;48.10;50.44;;
17594;Laerm;8916;47.086;15.920;2023-04-03T02:41:35;49.26;48.25;50.40;;
17594;Laerm;8916;47.086;15.920;2023-04-03T02:44:11;49.25;48.23;50.44;;
17594;Laerm;8916;47.086;15.920;2023-04-03T02:46:40;49.25;48.18;50.46;;
17594;Laerm;8916;47.086;15.920;2023-04-03T02:49:09;49.25;48.12;50.23;;
17594;Laerm;8916;47.086;15.920;2023-04-03T02:51:38;49.25;48.07;50.42;;
17594;Laerm;8916;47.086;15.920;2023-04-03T02:54:09;49.25;48.23;50.31;;
17594;Laerm;8916;47.086;15.920;2023-04-03T02:56:41;49.25;48.21;50.24;;
17594;Laerm;8916;47.086;15.920;2023-04-03T02:59:10;49.25;48.05;50.46;;
17594;Laerm;8916;47.086;15.920;2023-04-03T03:01:41;49.26;48.07;50.25;;
17594;Laerm;8916;47.086;15.920;2023-04-03T03:04:10;49.26;48.29;50.51;;
17594;Laerm;8916;47.086;15.920;2023-04-03T03:06:39;49.26;48.28;50.45;;
17594;Laerm;8916;47.086;15.920;2023-04-03T03:09:12;49.26;48.12;50.50;;
17594;Laerm;8916;47.086;15.920;2023-04-03T03:11:42;49.26;48.28;50.27;;
17594;Laerm;8916;47.086;15.920;2023-04-03T03:14:12;49.25;48.21;50.31;;
17594;Laerm;8916;47.086;15.920;2023-04-03T03:16:41;49.25;48.20;50.32;;
17594;Laerm;8916;47.086;15.920;2023-04-03T03:19:10;49.25;48.03;50.55;;
17594;Laerm;8916;47.086;15.920;2023-04-03T03:21:40;49.25;48.05;50.36;;
17594;Laerm;8916;47.086;15.920;2023-04-03T03:24:09;49.25;48.13;50.37;;
17594;Laerm;8916;47.086;15.920;2023-04-03T03:26:41;49.25;48.15;50.45;;
17594;Laerm;8916;47.086;15.920;2023-04-03T03:29:10;49.25;48.05;50.28;;
17594;Laerm;8916;47.086;15.920;2023-04-03T03:31:39;49.25;48.12;50.39;;
17594;Laerm;8916;47.086;15.920;2023-04-03T03:34:08;49.25;47.67;50.45;;
17594;Laerm;8916;47.086;15.920;2023-04-03T03:36:39;49.26;48.24;50.31;;
17594;Laerm;8916;47.086;15.920;2023-04-03T03:39:09;49.25;47.86;50.72;;
17594;Laerm;8916;47.086;15.920;2023-04-03T03:41:38;49.25;47.98;50.33;;
17594;Laerm;8916;47.086;15.920;2023-04-03T03:44:09;49.25;48.12;50.33;;
17594;Laerm;8916;47.086;15.920;2023-04-03T03:46:38;49.25;48.15;50.32;;
17594;Laerm;8916;47.086;15.920;2023-04-03T03:49:08;49.24;48.20;50.34;;
17594;Laerm;8916;47.086;15.920;2023-04-03T03:51:37;49.25;48.10;50.51;;
17594;Laerm;8916;47.086;15.920;2023-04-03T03:54:07;49.25;48.21;50.44;;
17594;Laerm;8916;47.086;15.920;2023-04-03T03:56:36;49.24;48.07;50.37;;
17594;Laerm;8916;47.086;15.920;2023-04-03T03:59:06;49.24;48.21;50.26;;
17594;Laerm;8916;47.086;15.920;2023-04-03T04:01:36;49.24;48.16;50.49;;
17594;Laerm;8916;47.086;15.920;2023-04-03T04:04:06;49.25;48.12;50.29;;
17594;Laerm;8916;47.086;15.920;2023-04-03T04:06:35;49.25;48.18;50.45;;
17594;Laerm;8916;47.086;15.920;2023-04-03T04:09:09;49.26;47.96;50.50;;
17594;Laerm;8916;47.086;15.920;2023-04-03T04:11:38;49.25;48.16;50.40;;
17594;Laerm;8916;47.086;15.920;2023-04-03T04:14:10;49.25;48.05;50.25;;
17594;Laerm;8916;47.086;15.920;2023-04-03T04:16:44;49.25;48.07;50.48;;
17594;Laerm;8916;47.086;15.920;2023-04-03T04:19:18;49.24;48.08;50.29;;
17594;Laerm;8916;47.086;15.920;2023-04-03T04:21:47;49.25;48.08;50.62;;
17594;Laerm;8916;47.086;15.920;2023-04-03T04:24:16;49.25;48.28;50.43;;
17594;Laerm;8916;47.086;15.920;2023-04-03T04:26:47;49.25;48.16;50.75;;
17594;Laerm;8916;47.086;15.920;2023-04-03T04:29:17;49.25;48.02;50.29;;
17594;Laerm;8916;47.086;15.920;2023-04-03T04:31:50;49.25;47.79;50.30;;
17594;Laerm;8916;47.086;15.920;2023-04-03T04:34:21;49.24;47.79;50.39;;
17594;Laerm;8916;47.086;15.920;2023-04-03T04:36:50;49.25;48.08;50.50;;
17594;Laerm;8916;47.086;15.920;2023-04-03T04:39:20;49.24;48.02;50.34;;
17594;Laerm;8916;47.086;15.920;2023-04-03T04:41:49;49.25;48.16;50.34;;
17594;Laerm;8916;47.086;15.920;2023-04-03T04:44:19;49.24;48.16;50.37;;
17594;Laerm;8916;47.086;15.920;2023-04-03T04:46:49;49.23;47.86;50.39;;
17594;Laerm;8916;47.086;15.920;2023-04-03T04:49:20;49.24;48.00;50.43;;
17594;Laerm;8916;47.086;15.920;2023-04-03T04:51:50;49.24;48.20;50.29;;
17594;Laerm;8916;47.086;15.920;2023-04-03T04:54:25;49.24;48.16;50.46;;
17594;Laerm;8916;47.086;15.920;2023-04-03T04:56:54;49.24;48.07;50.42;;
17594;Laerm;8916;47.086;15.920;2023-04-03T04:59:24;49.24;48.18;50.25;;
17594;Laerm;8916;47.086;15.920;2023-04-03T05:01:57;49.23;47.88;50.44;;
17594;Laerm;8916;47.086;15.920;2023-04-03T05:04:30;49.23;48.21;50.53;;
17594;Laerm;8916;47.086;15.920;2023-04-03T05:07:05;49.22;48.20;50.56;;
17594;Laerm;8916;47.086;15.920;2023-04-03T05:09:36;49.23;48.08;50.34;;
17594;Laerm;8916;47.086;15.920;2023-04-03T05:12:05;49.23;48.26;50.23;;
17594;Laerm;8916;47.086;15.920;2023-04-03T05:14:44;49.23;48.02;50.68;;
17594;Laerm;8916;47.086;15.920;2023-04-03T05:17:14;49.23;48.21;50.33;;
17594;Laerm;8916;47.086;15.920;2023-04-03T05:19:49;49.22;48.05;50.22;;
17594;Laerm;8916;47.086;15.920;2023-04-03T05:22:20;49.22;47.98;50.37;;
17594;Laerm;8916;47.086;15.920;2023-04-03T05:24:52;49.21;48.15;50.34;;
17594;Laerm;8916;47.086;15.920;2023-04-03T05:27:23;49.22;48.15;50.48;;
17594;Laerm;8916;47.086;15.920;2023-04-03T05:29:55;49.21;48.20;50.30;;
17594;Laerm;8916;47.086;15.920;2023-04-03T05:32:26;49.22;47.90;50.23;;
17594;Laerm;8916;47.086;15.920;2023-04-03T05:35:09;49.22;48.20;50.27;;
17594;Laerm;8916;47.086;15.920;2023-04-03T05:37:40;49.21;48.07;50.30;;
17594;Laerm;8916;47.086;15.920;2023-04-03T05:40:10;49.21;48.07;50.53;;
17594;Laerm;8916;47.086;15.920;2023-04-03T05:42:43;49.22;48.13;50.26;;
17594;Laerm;8916;47.086;15.920;2023-04-03T05:45:13;49.21;48.07;50.20;;
17594;Laerm;8916;47.086;15.920;2023-04-03T05:47:44;49.22;47.95;50.40;;
17594;Laerm;8916;47.086;15.920;2023-04-03T05:50:14;49.22;47.86;50.42;;
17594;Laerm;8916;47.086;15.920;2023-04-03T05:52:45;49.21;48.13;50.30;;
17594;Laerm;8916;47.086;15.920;2023-04-03T05:55:15;49.22;48.20;50.24;;
17594;Laerm;8916;47.086;15.920;2023-04-03T05:57:45;49.21;48.05;50.34;;
17594;Laerm;8916;47.086;15.920;2023-04-03T06:00:15;49.20;48.07;50.45;;
17594;Laerm;8916;47.086;15.920;2023-04-03T06:02:55;49.21;47.93;50.52;;
17594;Laerm;8916;47.086;15.920;2023-04-03T06:05:25;49.22;48.18;50.41;;
17594;Laerm;8916;47.086;15.920;2023-04-03T06:07:55;49.20;48.10;50.61;;
17594;Laerm;8916;47.086;15.920;2023-04-03T06:10:24;49.21;47.93;50.23;;
17594;Laerm;8916;47.086;15.920;2023-04-03T06:12:54;49.20;48.10;50.28;;
17594;Laerm;8916;47.086;15.920;2023-04-03T06:15:23;49.20;48.03;50.37;;
17594;Laerm;8916;47.086;15.920;2023-04-03T06:17:52;49.21;48.13;50.42;;
17594;Laerm;8916;47.086;15.920;2023-04-03T06:20:23;49.19;48.23;50.30;;
17594;Laerm;8916;47.086;15.920;2023-04-03T06:22:53;49.20;48.05;50.35;;
17594;Laerm;8916;47.086;15.920;2023-04-03T06:25:23;49.20;48.08;50.20;;
17594;Laerm;8916;47.086;15.920;2023-04-03T06:27:52;49.19;48.13;50.42;;
17594;Laerm;8916;47.086;15.920;2023-04-03T06:30:23;49.21;48.02;50.29;;
17594;Laerm;8916;47.086;15.920;2023-04-03T06:32:52;49.20;48.00;50.25;;
17594;Laerm;8916;47.086;15.920;2023-04-03T06:35:22;49.19;48.10;50.39;;
17594;Laerm;8916;47.086;15.920;2023-04-03T06:37:53;49.19;48.13;50.25;;
17594;Laerm;8916;47.086;15.920;2023-04-03T06:40:24;49.20;48.15;50.32;;
17594;Laerm;8916;47.086;15.920;2023-04-03T06:42:54;49.19;48.13;50.48;;
17594;Laerm;8916;47.086;15.920;2023-04-03T06:45:23;49.19;47.98;50.29;;
17594;Laerm;8916;47.086;15.920;2023-04-03T06:47:53;49.19;48.20;50.23;;
17594;Laerm;8916;47.086;15.920;2023-04-03T06:50:24;49.19;47.90;50.31;;
17594;Laerm;8916;47.086;15.920;2023-04-03T06:52:53;49.18;48.08;50.30;;
17594;Laerm;8916;47.086;15.920;2023-04-03T06:55:22;49.18;47.98;50.31;;
17594;Laerm;8916;47.086;15.920;2023-04-03T06:57:51;49.19;48.02;50.26;;
17594;Laerm;8916;47.086;15.920;2023-04-03T07:00:21;49.18;48.12;50.33;;
17594;Laerm;8916;47.086;15.920;2023-04-03T07:02:50;49.19;48.03;50.25;;
17594;Laerm;8916;47.086;15.920;2023-04-03T07:05:19;49.18;48.08;50.44;;
17594;Laerm;8916;47.086;15.920;2023-04-03T07:07:50;49.18;47.90;50.30;;
17594;Laerm;8916;47.086;15.920;2023-04-03T07:10:19;49.17;48.00;50.23;;
17594;Laerm;8916;47.086;15.920;2023-04-03T07:12:48;49.16;47.95;50.42;;
17594;Laerm;8916;47.086;15.920;2023-04-03T07:15:18;49.17;48.12;50.41;;
17594;Laerm;8916;47.086;15.920;2023-04-03T07:17:47;49.15;48.07;50.32;;
17594;Laerm;8916;47.086;15.920;2023-04-03T07:20:16;49.13;48.03;50.59;;
17594;Laerm;8916;47.086;15.920;2023-04-03T07:22:45;49.12;47.93;50.28;;
17594;Laerm;8916;47.086;15.920;2023-04-03T07:25:16;49.10;48.12;50.29;;
17594;Laerm;8916;47.086;15.920;2023-04-03T07:27:45;49.05;48.02;50.19;;
17594;Laerm;8916;47.086;15.920;2023-04-03T07:30:15;49.08;47.61;50.29;;
17594;Laerm;8916;47.086;15.920;2023-04-03T07:32:44;49.08;47.76;50.23;;
17594;Laerm;8916;47.086;15.920;2023-04-03T07:35:14;49.08;47.86;50.33;;
17594;Laerm;8916;47.086;15.920;2023-04-03T07:37:44;49.09;47.95;50.35;;
17594;Laerm;8916;47.086;15.920;2023-04-03T07:40:13;49.11;48.03;50.31;;
17594;Laerm;8916;47.086;15.920;2023-04-03T07:42:44;49.12;48.12;50.27;;
17594;Laerm;8916;47.086;15.920;2023-04-03T07:45:14;49.12;48.03;50.26;;
17594;Laerm;8916;47.086;15.920;2023-04-03T07:47:45;49.10;47.74;50.40;;
17594;Laerm;8916;47.086;15.920;2023-04-03T07:50:14;49.09;48.07;50.29;;
17594;Laerm;8916;47.086;15.920;2023-04-03T07:52:44;49.05;47.90;50.53;;
17594;Laerm;8916;47.086;15.920;2023-04-03T07:55:13;49.07;48.02;50.37;;
17594;Laerm;8916;47.086;15.920;2023-04-03T07:57:43;49.06;48.10;50.30;;
17594;Laerm;8916;47.086;15.920;2023-04-03T08:00:14;49.07;47.84;50.10;;
17594;Laerm;8916;47.086;15.920;2023-04-03T08:02:45;49.08;47.90;50.22;;
17594;Laerm;8916;47.086;15.920;2023-04-03T08:05:18;49.10;48.03;50.41;;
17594;Laerm;8916;47.086;15.920;2023-04-03T08:07:48;49.09;47.96;50.45;;
17594;Laerm;8916;47.086;15.920;2023-04-03T08:10:17;49.09;48.00;50.17;;
17594;Laerm;8916;47.086;15.920;2023-04-03T08:12:48;49.08;47.98;50.26;;
17594;Laerm;8916;47.086;15.920;2023-04-03T08:15:17;49.06;47.95;50.17;;
17594;Laerm;8916;47.086;15.920;2023-04-03T08:17:46;49.06;47.83;50.13;;
17594;Laerm;8916;47.086;15.920;2023-04-03T08:20:16;49.06;47.98;50.36;;
17594;Laerm;8916;47.086;15.920;2023-04-03T08:22:45;49.08;48.05;50.17;;
17594;Laerm;8916;47.086;15.920;2023-04-03T08:25:14;49.05;48.05;50.44;;
17594;Laerm;8916;47.086;15.920;2023-04-03T08:27:46;49.00;47.86;50.09;;
17594;Laerm;8916;47.086;15.920;2023-04-03T08:30:15;49.02;48.05;50.16;;
17594;Laerm;8916;47.086;15.920;2023-04-03T08:32:45;49.05;48.00;50.35;;
17594;Laerm;8916;47.086;15.920;2023-04-03T08:35:14;49.08;48.07;50.29;;
17594;Laerm;8916;47.086;15.920;2023-04-03T08:37:43;49.10;48.05;50.59;;
17594;Laerm;8916;47.086;15.920;2023-04-03T08:40:15;49.10;47.88;50.36;;
17594;Laerm;8916;47.086;15.920;2023-04-03T08:42:56;49.11;47.96;50.36;;
17594;Laerm;8916;47.086;15.920;2023-04-03T08:45:42;49.11;48.02;50.32;;
17594;Laerm;8916;47.086;15.920;2023-04-03T08:48:15;49.10;48.08;50.24;;
17594;Laerm;8916;47.086;15.920;2023-04-03T08:50:51;49.10;47.95;50.31;;
17594;Laerm;8916;47.086;15.920;2023-04-03T08:53:26;49.11;48.03;50.22;;
17594;Laerm;8916;47.086;15.920;2023-04-03T08:55:56;49.11;48.13;50.19;;
17594;Laerm;8916;47.086;15.920;2023-04-03T08:58:30;49.13;48.05;50.13;;
17594;Laerm;8916;47.086;15.920;2023-04-03T09:01:03;49.11;47.93;50.20;;
17594;Laerm;8916;47.086;15.920;2023-04-03T09:03:38;49.12;47.98;50.40;;
17594;Laerm;8916;47.086;15.920;2023-04-03T09:06:13;49.11;47.91;50.25;;
17594;Laerm;8916;47.086;15.920;2023-04-03T09:08:47;49.09;48.07;50.23;;
17594;Laerm;8916;47.086;15.920;2023-04-03T09:11:23;49.11;48.08;50.16;;
17594;Laerm;8916;47.086;15.920;2023-04-03T09:13:59;49.11;48.10;50.23;;
17594;Laerm;8916;47.086;15.920;2023-04-03T09:16:39;49.11;47.98;50.12;;
17594;Laerm;8916;47.086;15.920;2023-04-03T09:19:18;49.10;47.91;50.13;;
17594;Laerm;8916;47.086;15.920;2023-04-03T09:21:51;49.11;48.02;50.24;;
17594;Laerm;8916;47.086;15.920;2023-04-03T09:24:23;49.11;48.10;50.16;;
17594;Laerm;8916;47.086;15.920;2023-04-03T09:26:56;49.11;48.00;50.25;;
17594;Laerm;8916;47.086;15.920;2023-04-03T09:29:30;49.11;47.88;50.23;;
17594;Laerm;8916;47.086;15.920;2023-04-03T09:32:01;49.11;47.90;50.19;;
17594;Laerm;8916;47.086;15.920;2023-04-03T09:34:35;49.13;48.00;50.24;;
17594;Laerm;8916;47.086;15.920;2023-04-03T09:37:05;49.05;48.03;50.22;;
17594;Laerm;8916;47.086;15.920;2023-04-03T09:39:50;48.93;47.88;50.06;;
17594;Laerm;8916;47.086;15.920;2023-04-03T09:42:23;48.83;47.72;49.95;;
17594;Laerm;8916;47.086;15.920;2023-04-03T09:44:57;48.85;47.81;50.02;;
17594;Laerm;8916;47.086;15.920;2023-04-03T09:47:28;48.95;47.91;50.36;;
17594;Laerm;8916;47.086;15.920;2023-04-03T09:50:19;49.02;47.81;50.17;;
17594;Laerm;8916;47.086;15.920;2023-04-03T09:52:50;48.97;47.77;50.23;;
17594;Laerm;8916;47.086;15.920;2023-04-03T09:55:22;48.92;47.74;50.11;;
17594;Laerm;8916;47.086;15.920;2023-04-03T09:57:55;48.90;47.84;50.17;;
17594;Laerm;8916;47.086;15.920;2023-04-03T10:00:30;48.93;47.84;50.36;;
17594;Laerm;8916;47.086;15.920;2023-04-03T10:03:03;49.04;48.02;50.20;;
17594;Laerm;8916;47.086;15.920;2023-04-03T10:05:35;49.05;47.76;50.22;;
17594;Laerm;8916;47.086;15.920;2023-04-03T10:08:15;49.09;47.95;50.17;;
17594;Laerm;8916;47.086;15.920;2023-04-03T10:11:06;49.09;47.93;50.25;;
17594;Laerm;8916;47.086;15.920;2023-04-03T10:13:51;49.04;47.90;50.08;;
17594;Laerm;8916;47.086;15.920;2023-04-03T10:16:27;48.95;47.90;50.35;;
17594;Laerm;8916;47.086;15.920;2023-04-03T10:19:27;48.94;47.83;50.24;;
17594;Laerm;8916;47.086;15.920;2023-04-03T10:22:02;48.98;47.79;50.31;;
17594;Laerm;8916;47.086;15.920;2023-04-03T10:24:39;49.01;47.88;50.20;;
17594;Laerm;8916;47.086;15.920;2023-04-03T10:27:18;49.05;48.00;50.26;;
17594;Laerm;8916;47.086;15.920;2023-04-03T10:29:58;49.06;48.02;50.17;;
17594;Laerm;8916;47.086;15.920;2023-04-03T10:32:47;49.06;47.96;50.44;;
17594;Laerm;8916;47.086;15.920;2023-04-03T10:35:37;49.04;47.81;50.18;;
17594;Laerm;8916;47.086;15.920;2023-04-03T10:38:16;48.97;47.93;50.11;;
17594;Laerm;8916;47.086;15.920;2023-04-03T10:40:55;48.97;47.86;50.22;;
17594;Laerm;8916;47.086;15.920;2023-04-03T10:43:35;48.97;48.00;50.13;;
17594;Laerm;8916;47.086;15.920;2023-04-03T10:46:10;48.99;47.98;50.25;;
17594;Laerm;8916;47.086;15.920;2023-04-03T10:48:55;49.04;48.03;50.25;;
17594;Laerm;8916;47.086;15.920;2023-04-03T10:51:33;49.04;47.91;50.07;;
17594;Laerm;8916;47.086;15.920;2023-04-03T10:54:11;49.05;48.07;50.24;;
17594;Laerm;8916;47.086;15.920;2023-04-03T10:56:44;49.07;48.02;50.20;;
17594;Laerm;8916;47.086;15.920;2023-04-03T10:59:32;49.07;47.93;50.26;;
17594;Laerm;8916;47.086;15.920;2023-04-03T11:02:07;49.07;47.96;50.31;;
17594;Laerm;8916;47.086;15.920;2023-04-03T11:04:46;49.05;47.98;50.15;;
17594;Laerm;8916;47.086;15.920;2023-04-03T11:07:21;49.03;48.01;50.26;;
17594;Laerm;8916;47.086;15.920;2023-04-03T11:09:55;48.97;47.76;50.08;;
17594;Laerm;8916;47.086;15.920;2023-04-03T11:12:38;48.93;47.88;50.18;;
17594;Laerm;8916;47.086;15.920;2023-04-03T11:15:13;48.99;47.68;50.30;;
17594;Laerm;8916;47.086;15.920;2023-04-03T11:17:49;49.00;47.79;50.39;;
17594;Laerm;8916;47.086;15.920;2023-04-03T11:20:26;48.96;47.95;50.27;;
17594;Laerm;8916;47.086;15.920;2023-04-03T11:23:04;48.92;47.67;50.09;;
17594;Laerm;8916;47.086;15.920;2023-04-03T11:25:36;48.90;47.72;49.91;;
17594;Laerm;8916;47.086;15.920;2023-04-03T11:28:13;48.97;47.96;50.08;;
17594;Laerm;8916;47.086;15.920;2023-04-03T11:30:48;48.99;47.72;50.25;;
17594;Laerm;8916;47.086;15.920;2023-04-03T11:33:36;49.00;48.05;50.21;;
17594;Laerm;8916;47.086;15.920;2023-04-03T11:36:09;48.98;47.88;50.22;;
17594;Laerm;8916;47.086;15.920;2023-04-03T11:38:59;49.00;47.93;50.36;;
17594;Laerm;8916;47.086;15.920;2023-04-03T11:41:31;49.04;47.93;50.26;;
17594;Laerm;8916;47.086;15.920;2023-04-03T11:44:04;49.05;47.81;50.20;;
17594;Laerm;8916;47.086;15.920;2023-04-03T11:46:51;49.06;47.83;50.38;;
17594;Laerm;8916;47.086;15.920;2023-04-03T11:49:57;49.07;47.96;50.46;;
17594;Laerm;8916;47.086;15.920;2023-04-03T11:52:59;49.08;47.88;50.14;;
17594;Laerm;8916;47.086;15.920;2023-04-03T11:56:00;49.06;47.98;50.19;;
17594;Laerm;8916;47.086;15.920;2023-04-03T11:58:32;49.02;48.02;50.19;;
17594;Laerm;8916;47.086;15.920;2023-04-03T12:01:07;48.93;47.76;50.13;;
17594;Laerm;8916;47.086;15.920;2023-04-03T12:04:07;48.93;47.79;50.03;;
17594;Laerm;8916;47.086;15.920;2023-04-03T12:07:13;49.01;47.91;50.24;;
17594;Laerm;8916;47.086;15.920;2023-04-03T12:10:14;49.04;47.81;50.15;;
17594;Laerm;8916;47.086;15.920;2023-04-03T12:13:00;49.08;47.95;50.23;;
17594;Laerm;8916;47.086;15.920;2023-04-03T12:15:55;49.07;47.74;50.13;;
17594;Laerm;8916;47.086;15.920;2023-04-03T12:18:59;49.06;47.88;50.15;;
17594;Laerm;8916;47.086;15.920;2023-04-03T12:22:15;49.08;47.93;50.28;;
17594;Laerm;8916;47.086;15.920;2023-04-03T12:24:49;49.10;47.79;50.21;;
17594;Laerm;8916;47.086;15.920;2023-04-03T12:27:33;49.10;47.84;50.21;;
17594;Laerm;8916;47.086;15.920;2023-04-03T12:30:15;49.10;47.77;50.14;;
17594;Laerm;8916;47.086;15.920;2023-04-03T12:33:02;49.10;47.96;50.20;;
17594;Laerm;8916;47.086;15.920;2023-04-03T12:35:46;49.09;47.96;50.23;;
17594;Laerm;8916;47.086;15.920;2023-04-03T12:38:37;49.08;48.02;50.43;;
17594;Laerm;8916;47.086;15.920;2023-04-03T12:41:21;49.07;48.05;50.54;;
17594;Laerm;8916;47.086;15.920;2023-04-03T12:46:52;49.06;48.02;50.64;;
17594;Laerm;8916;47.086;15.920;2023-04-03T12:49:35;49.05;48.00;50.41;;
17594;Laerm;8916;47.086;15.920;2023-04-03T12:52:18;48.98;47.86;50.17;;
17594;Laerm;8916;47.086;15.920;2023-04-03T12:54:50;48.94;47.91;50.10;;
17594;Laerm;8916;47.086;15.920;2023-04-03T12:57:23;48.95;47.95;50.02;;
17594;Laerm;8916;47.086;15.920;2023-04-03T12:59:55;48.95;47.84;50.14;;
17594;Laerm;8916;47.086;15.920;2023-04-03T13:02:27;49.00;47.84;50.04;;
17594;Laerm;8916;47.086;15.920;2023-04-03T13:04:59;48.93;47.81;50.56;;
17594;Laerm;8916;47.086;15.920;2023-04-03T13:07:35;48.94;47.93;50.05;;
17594;Laerm;8916;47.086;15.920;2023-04-03T13:10:16;48.99;47.88;50.15;;
17594;Laerm;8916;47.086;15.920;2023-04-03T13:12:49;49.01;47.63;50.12;;
17594;Laerm;8916;47.086;15.920;2023-04-03T13:15:27;48.99;47.93;50.24;;
17594;Laerm;8916;47.086;15.920;2023-04-03T13:17:57;48.92;47.76;50.27;;
17594;Laerm;8916;47.086;15.920;2023-04-03T13:20:29;48.97;47.77;50.06;;
17594;Laerm;8916;47.086;15.920;2023-04-03T13:23:01;49.01;48.00;50.15;;
17594;Laerm;8916;47.086;15.920;2023-04-03T13:25:34;48.96;47.86;50.13;;
17594;Laerm;8916;47.086;15.920;2023-04-03T13:28:05;48.96;47.78;50.38;;
17594;Laerm;8916;47.086;15.920;2023-04-03T13:30:56;48.99;47.96;50.24;;
17594;Laerm;8916;47.086;15.920;2023-04-03T13:33:32;48.96;47.70;50.11;;
17594;Laerm;8916;47.086;15.920;2023-04-03T13:36:08;48.86;47.76;50.21;;
17594;Laerm;8916;47.086;15.920;2023-04-03T13:38:44;48.88;47.61;50.32;;
17594;Laerm;8916;47.086;15.920;2023-04-03T13:41:27;48.97;47.95;50.38;;
17594;Laerm;8916;47.086;15.920;2023-04-03T13:44:16;49.01;47.83;50.23;;
17594;Laerm;8916;47.086;15.920;2023-04-03T13:46:47;49.03;47.90;50.20;;
17594;Laerm;8916;47.086;15.920;2023-04-03T13:49:20;49.03;47.88;50.47;;
17594;Laerm;8916;47.086;15.920;2023-04-03T13:51:50;48.99;47.67;50.62;;
17594;Laerm;8916;47.086;15.920;2023-04-03T13:54:36;48.97;47.91;50.23;;
17594;Laerm;8916;47.086;15.920;2023-04-03T13:57:14;48.97;47.95;50.17;;
17594;Laerm;8916;47.086;15.920;2023-04-03T13:59:43;49.02;47.88;50.11;;
17594;Laerm;8916;47.086;15.920;2023-04-03T14:02:18;49.05;47.72;50.31;;
17594;Laerm;8916;47.086;15.920;2023-04-03T14:04:53;49.08;48.00;50.17;;
17594;Laerm;8916;47.086;15.920;2023-04-03T14:07:26;49.07;47.93;50.23;;
17594;Laerm;8916;47.086;15.920;2023-04-03T14:09:56;49.06;47.91;50.13;;
17594;Laerm;8916;47.086;15.920;2023-04-03T14:12:30;48.99;47.83;50.06;;
17594;Laerm;8916;47.086;15.920;2023-04-03T14:15:03;48.91;47.60;50.11;;
17594;Laerm;8916;47.086;15.920;2023-04-03T14:17:33;48.85;47.77;49.94;;
17594;Laerm;8916;47.086;15.920;2023-04-03T14:20:05;48.87;47.61;50.06;;
17594;Laerm;8916;47.086;15.920;2023-04-03T14:22:35;48.87;47.70;50.03;;
17594;Laerm;8916;47.086;15.920;2023-04-03T14:25:05;48.87;47.76;50.13;;